createdAt,value
2023-03-22T00:01:32.671Z,0.76
2023-03-22T00:05:32.810Z,0.76
2023-03-22T00:09:32.984Z,0.75
2023-03-22T00:13:35.392Z,0.73
2023-03-22T00:17:33.089Z,0.74
2023-03-22T00:21:33.037Z,0.72
2023-03-22T00:25:33.001Z,0.75
2023-03-22T00:29:32.986Z,0.75
2023-03-22T00:33:32.953Z,0.74
2023-03-22T00:37:32.890Z,0.74
2023-03-22T00:41:32.848Z,0.72
2023-03-22T00:45:32.853Z,0.73
2023-03-22T00:49:32.873Z,0.72
2023-03-22T00:53:32.761Z,0.73
2023-03-22T00:57:32.708Z,0.74
2023-03-22T01:01:32.792Z,0.75
2023-03-22T01:05:32.639Z,0.74
2023-03-22T01:09:32.669Z,0.75
2023-03-22T01:13:32.837Z,0.77
2023-03-22T01:17:32.980Z,0.78
2023-03-22T01:21:33.125Z,0.76
2023-03-22T01:25:33.259Z,0.77
2023-03-22T01:29:33.413Z,0.75
2023-03-22T01:33:33.561Z,0.75
2023-03-22T01:37:33.728Z,0.75
2023-03-22T01:41:33.851Z,0.77
2023-03-22T01:45:34.035Z,0.78
2023-03-22T01:49:34.175Z,0.77
2023-03-22T01:53:34.332Z,0.80
2023-03-22T01:57:34.474Z,0.78
2023-03-22T02:01:34.743Z,0.78
2023-03-22T02:05:34.785Z,0.78
2023-03-22T02:09:34.930Z,0.78
2023-03-22T02:13:35.093Z,0.77
2023-03-22T02:17:35.310Z,0.80
2023-03-22T02:21:35.386Z,0.78
2023-03-22T02:25:35.530Z,0.80
2023-03-22T02:29:35.684Z,0.78
2023-03-22T02:33:35.861Z,0.79
2023-03-22T02:37:35.965Z,0.79
2023-03-22T02:41:36.096Z,0.78
2023-03-22T02:45:36.246Z,0.81
2023-03-22T02:49:36.406Z,0.75
2023-03-22T02:53:36.553Z,0.75
2023-03-22T02:57:36.700Z,0.77
2023-03-22T03:01:36.934Z,0.76
2023-03-22T03:05:36.995Z,0.74
2023-03-22T03:09:37.144Z,0.78
2023-03-22T03:13:37.264Z,0.74
2023-03-22T03:17:37.428Z,0.75
2023-03-22T03:21:37.588Z,0.78
2023-03-22T03:25:37.751Z,0.73
2023-03-22T03:29:37.857Z,0.73
2023-03-22T03:33:37.996Z,0.72
2023-03-22T03:37:38.170Z,0.73
2023-03-22T03:41:38.314Z,0.72
2023-03-22T03:45:38.553Z,0.70
2023-03-22T03:49:38.576Z,0.70
2023-03-22T03:53:38.702Z,0.72
2023-03-22T03:57:38.838Z,0.72
2023-03-22T04:01:38.988Z,0.71
2023-03-22T04:05:39.137Z,0.70
2023-03-22T04:09:39.290Z,0.70
2023-03-22T04:13:39.414Z,0.72
2023-03-22T04:17:39.576Z,0.70
2023-03-22T04:21:39.689Z,0.71
2023-03-22T04:25:39.827Z,0.72
2023-03-22T04:29:39.941Z,0.73
2023-03-22T04:33:40.092Z,0.69
2023-03-22T04:37:40.221Z,0.69
2023-03-22T04:41:40.374Z,0.70
2023-03-22T04:45:40.506Z,0.71
2023-03-22T04:49:40.658Z,0.70
2023-03-22T04:53:40.919Z,0.71
2023-03-22T04:57:40.942Z,0.69
2023-03-22T05:01:41.100Z,0.69
2023-03-22T05:05:41.213Z,0.70
2023-03-22T05:09:41.385Z,0.72
2023-03-22T05:13:41.611Z,0.75
2023-03-22T05:17:41.669Z,0.77
2023-03-22T05:21:41.812Z,0.78
2023-03-22T05:25:41.962Z,0.78
2023-03-22T05:29:42.108Z,0.79
2023-03-22T05:33:42.276Z,0.79
2023-03-22T05:37:42.413Z,0.78
2023-03-22T05:41:42.591Z,0.77
2023-03-22T05:45:42.722Z,0.80
2023-03-22T05:49:42.869Z,0.77
2023-03-22T05:53:43.016Z,0.75
2023-03-22T05:57:43.198Z,0.77
2023-03-22T06:01:43.368Z,0.78
2023-03-22T06:05:43.472Z,0.76
2023-03-22T06:09:43.595Z,0.80
2023-03-22T06:13:43.741Z,0.79
2023-03-22T06:17:43.908Z,0.82
2023-03-22T06:21:43.973Z,0.82
2023-03-22T06:25:44.103Z,0.82
2023-03-22T06:29:44.190Z,0.98
2023-03-22T06:33:44.231Z,0.90
2023-03-22T06:37:44.385Z,0.96
2023-03-22T06:41:44.328Z,0.94
2023-03-22T06:45:44.844Z,1.34
2023-03-22T06:49:44.250Z,2.43
2023-03-22T06:53:44.222Z,2.55
2023-03-22T06:57:44.156Z,2.34
2023-03-22T07:01:44.359Z,3.05
2023-03-22T07:05:44.100Z,2.96
2023-03-22T07:09:44.077Z,2.57
2023-03-22T07:13:44.060Z,2.22
2023-03-22T07:17:43.984Z,2.19
2023-03-22T07:21:43.947Z,2.10
2023-03-22T07:25:44.284Z,1.99
2023-03-22T07:29:43.874Z,1.91
2023-03-22T07:33:43.850Z,1.57
2023-03-22T07:37:43.804Z,1.52
2023-03-22T07:41:43.908Z,1.36
2023-03-22T07:45:44.142Z,1.43
2023-03-22T07:49:44.174Z,1.36
2023-03-22T07:53:44.300Z,1.40
2023-03-22T07:57:44.391Z,2.31
2023-03-22T08:01:44.599Z,2.60
2023-03-22T08:05:44.623Z,2.84
2023-03-22T08:09:44.636Z,3.05
2023-03-22T08:13:44.798Z,3.04
2023-03-22T08:17:44.723Z,3.10
2023-03-22T08:21:44.746Z,3.03
2023-03-22T08:25:44.808Z,2.88
2023-03-22T08:29:44.809Z,2.60
2023-03-22T08:33:44.895Z,2.19
2023-03-22T08:37:44.956Z,2.26
2023-03-22T08:41:45.326Z,2.27
2023-03-22T08:45:45.091Z,2.23
2023-03-22T08:49:45.366Z,0.97
2023-03-22T08:53:45.304Z,2.03
2023-03-22T08:57:45.816Z,1.88
2023-03-22T09:01:45.578Z,1.77
2023-03-22T09:05:45.554Z,0.47
2023-03-22T09:09:45.748Z,0.36
2023-03-22T09:13:45.818Z,0.50
2023-03-22T09:17:45.862Z,0.54
2023-03-22T09:21:46.330Z,0.45
2023-03-22T09:25:46.014Z,0.57
2023-03-22T09:29:46.012Z,0.55
2023-03-22T09:33:46.017Z,0.59
2023-03-22T09:37:46.020Z,0.56
2023-03-22T09:41:46.073Z,0.65
2023-03-22T09:45:45.937Z,1.04
2023-03-22T09:49:53.290Z,1.36
2023-03-22T09:53:46.843Z,1.62
2023-03-22T09:57:45.821Z,3.01
2023-03-22T10:01:46.006Z,2.48
2023-03-22T10:05:45.765Z,1.70
2023-03-22T10:09:45.690Z,2.09
2023-03-22T10:13:45.657Z,2.26
2023-03-22T10:17:45.641Z,5.10
2023-03-22T10:21:45.885Z,5.93
2023-03-22T10:25:46.092Z,6.10
2023-03-22T10:29:46.351Z,1.25
2023-03-22T10:33:46.193Z,2.49
2023-03-22T10:37:46.192Z,3.82
2023-03-22T10:41:46.353Z,3.98
2023-03-22T10:45:46.108Z,4.46
2023-03-22T10:49:46.377Z,4.04
2023-03-22T10:53:46.373Z,4.33
2023-03-22T10:57:45.987Z,4.35
2023-03-22T11:01:47.114Z,4.39
2023-03-22T11:05:45.987Z,4.14
2023-03-22T11:09:45.878Z,4.14
2023-03-22T11:13:45.944Z,3.94
2023-03-22T11:17:46.381Z,3.85
2023-03-22T11:21:46.335Z,4.40
2023-03-22T11:25:46.543Z,1.99
2023-03-22T11:29:46.723Z,0.44
2023-03-22T11:33:46.677Z,0.53
2023-03-22T11:37:46.629Z,0.35
2023-03-22T11:41:46.609Z,0.55
2023-03-22T11:45:46.780Z,0.75
2023-03-22T11:49:46.532Z,0.94
2023-03-22T11:53:46.488Z,1.01
2023-03-22T11:57:46.479Z,1.04
2023-03-22T12:01:46.411Z,1.22
2023-03-22T12:05:46.495Z,1.32
2023-03-22T12:09:46.401Z,1.74
2023-03-22T12:13:46.404Z,1.34
2023-03-22T12:17:46.461Z,0.40
2023-03-22T12:21:46.233Z,0.54
2023-03-22T12:25:46.182Z,0.49
2023-03-22T12:29:46.202Z,0.74
2023-03-22T12:33:46.220Z,0.58
2023-03-22T12:37:46.072Z,0.68
2023-03-22T12:41:46.422Z,0.57
2023-03-22T12:45:46.066Z,0.64
2023-03-22T12:49:46.033Z,0.79
2023-03-22T12:53:46.176Z,0.65
2023-03-22T12:57:46.276Z,0.73
2023-03-22T13:01:46.412Z,0.74
2023-03-22T13:05:46.501Z,0.60
2023-03-22T13:09:46.940Z,0.70
2023-03-22T13:13:46.919Z,1.84
2023-03-22T13:17:47.039Z,1.63
2023-03-22T13:21:46.955Z,3.40
2023-03-22T13:25:47.022Z,6.15
2023-03-22T13:29:47.045Z,7.29
2023-03-22T13:33:47.075Z,7.93
2023-03-22T13:37:47.075Z,8.73
2023-03-22T13:41:47.039Z,10.18
2023-03-22T13:45:47.022Z,10.63
2023-03-22T13:49:46.960Z,12.58
2023-03-22T13:53:46.952Z,11.63
2023-03-22T13:57:46.939Z,13.19
2023-03-22T14:01:47.016Z,14.93
2023-03-22T14:05:47.029Z,15.09
2023-03-22T14:09:46.961Z,15.56
2023-03-22T14:13:46.992Z,14.95
2023-03-22T14:17:48.780Z,15.24
2023-03-22T14:21:46.998Z,13.64
2023-03-22T14:46:37.898Z,0.50
2023-03-22T14:50:37.900Z,0.53
2023-03-22T14:54:37.900Z,0.57
2023-03-22T14:58:37.897Z,0.57
2023-03-22T15:02:38.012Z,0.63
2023-03-22T15:06:37.498Z,0.59
2023-03-22T15:10:37.476Z,0.57
2023-03-22T15:14:37.437Z,0.63
2023-03-22T15:18:37.565Z,0.65
2023-03-22T15:22:37.538Z,0.66
2023-03-22T15:26:37.481Z,0.67
2023-03-22T15:30:37.454Z,0.64
2023-03-22T15:34:37.413Z,0.79
2023-03-22T15:38:43.296Z,0.78
2023-03-22T15:42:38.322Z,0.76
2023-03-22T15:46:37.334Z,0.88
2023-03-22T15:50:37.313Z,0.77
2023-03-22T15:54:37.262Z,0.78
2023-03-22T15:58:37.230Z,0.77
2023-03-22T16:02:37.186Z,0.82
2023-03-22T16:06:37.177Z,0.80
2023-03-22T16:10:37.137Z,0.84
2023-03-22T16:14:38.356Z,0.95
2023-03-22T16:18:37.032Z,0.91
2023-03-22T16:22:37.009Z,0.97
2023-03-22T16:26:37.174Z,0.98
2023-03-22T16:30:37.155Z,1.00
2023-03-22T16:34:37.110Z,0.96
2023-03-22T16:38:37.095Z,0.99
2023-03-22T16:42:37.048Z,0.91
2023-03-22T16:46:37.195Z,0.88
2023-03-22T16:50:36.975Z,1.02
2023-03-22T16:54:37.947Z,1.06
2023-03-22T16:58:36.901Z,1.02
2023-03-22T17:02:36.864Z,1.01
2023-03-22T17:06:36.809Z,1.19
2023-03-22T17:10:36.781Z,1.18
2023-03-22T17:14:36.744Z,0.98
2023-03-22T17:18:36.718Z,1.00
2023-03-22T17:22:36.659Z,1.13
2023-03-22T17:26:36.727Z,1.01
2023-03-22T17:30:36.704Z,0.97
2023-03-22T17:34:36.543Z,1.09
2023-03-22T17:42:36.495Z,0.99
2023-03-22T17:47:13.424Z,1.10
2023-03-22T17:50:37.432Z,1.09
2023-03-22T17:58:41.709Z,0.95
2023-03-22T18:02:36.572Z,1.03
2023-03-22T18:06:36.600Z,1.10
2023-03-22T18:10:36.647Z,1.16
2023-03-22T18:14:41.160Z,1.06
2023-03-22T18:18:36.704Z,1.15
2023-03-22T18:22:36.669Z,1.24
2023-03-22T18:30:36.630Z,1.18
2023-03-22T18:34:36.554Z,1.26
2023-03-22T18:39:16.858Z,1.40
2023-03-22T18:42:48.149Z,1.53
2023-03-22T18:46:37.502Z,1.62
2023-03-22T18:50:36.413Z,1.50
2023-03-22T18:54:39.038Z,1.48
2023-03-22T18:58:36.502Z,1.37
2023-03-22T19:02:39.894Z,1.40
2023-03-22T19:06:36.507Z,1.42
2023-03-22T19:10:36.494Z,1.36
2023-03-22T19:18:36.517Z,1.36
2023-03-22T19:22:36.128Z,1.36
2023-03-22T19:26:39.828Z,1.43
2023-03-22T19:30:36.502Z,1.45
2023-03-22T19:34:36.010Z,1.40
2023-03-22T19:38:36.090Z,1.58
2023-03-22T19:42:36.827Z,1.49
2023-03-22T19:46:36.071Z,1.58
2023-03-22T19:50:35.859Z,1.44
2023-03-22T19:54:43.401Z,1.59
2023-03-22T19:58:36.840Z,1.58
2023-03-22T20:02:35.778Z,1.59
2023-03-22T20:06:36.589Z,1.54
2023-03-22T20:10:35.698Z,1.59
2023-03-22T20:14:35.669Z,1.52
2023-03-22T20:18:35.629Z,1.60
2023-03-22T20:22:35.585Z,1.43
2023-03-22T20:26:35.560Z,1.43
2023-03-22T20:30:35.504Z,1.63
2023-03-22T20:34:35.517Z,1.64
2023-03-22T20:38:35.540Z,1.53
2023-03-22T20:42:35.575Z,1.55
2023-03-22T20:46:35.602Z,1.50
2023-03-22T20:50:35.654Z,1.59
2023-03-22T20:54:35.689Z,1.57
2023-03-22T20:58:35.707Z,1.47
2023-03-22T21:02:35.731Z,1.58
2023-03-22T21:06:35.775Z,1.44
2023-03-22T21:10:35.825Z,1.37
2023-03-22T21:14:35.867Z,1.49
2023-03-22T21:18:35.895Z,1.63
2023-03-22T21:22:35.959Z,1.59
2023-03-22T21:26:35.993Z,1.52
2023-03-22T21:30:36.040Z,2.24
2023-03-22T21:34:36.144Z,1.55
2023-03-22T21:38:36.270Z,1.60
2023-03-22T21:42:36.986Z,1.68
2023-03-22T21:46:36.505Z,1.70
2023-03-22T21:50:36.592Z,1.83
2023-03-22T21:54:36.682Z,2.09
2023-03-22T21:58:36.793Z,1.96
2023-03-22T22:02:36.893Z,2.01
2023-03-22T22:06:37.000Z,2.07
2023-03-22T22:10:37.113Z,2.12
2023-03-22T22:14:37.217Z,2.05
2023-03-22T22:18:37.332Z,2.13
2023-03-22T22:22:37.412Z,2.03
2023-03-22T22:26:37.511Z,1.89
2023-03-22T22:30:37.630Z,1.88
2023-03-22T22:34:37.707Z,1.88
2023-03-22T22:38:37.823Z,1.77
2023-03-22T22:42:37.925Z,1.76
2023-03-22T22:46:38.044Z,1.82
2023-03-22T22:50:38.136Z,1.72
2023-03-22T22:54:38.217Z,1.76
2023-03-22T22:58:38.321Z,2.08
2023-03-22T23:02:38.445Z,1.79
2023-03-22T23:06:38.518Z,1.87
2023-03-22T23:10:38.627Z,1.86
2023-03-22T23:14:38.745Z,1.82
2023-03-22T23:18:38.845Z,1.80
2023-03-22T23:22:38.947Z,1.90
2023-03-22T23:26:39.082Z,1.89
2023-03-22T23:30:39.150Z,1.93
2023-03-22T23:34:39.222Z,1.97
2023-03-22T23:38:39.326Z,1.98
2023-03-22T23:42:39.485Z,2.02
2023-03-22T23:46:39.562Z,2.00
2023-03-22T23:50:39.681Z,1.91
2023-03-22T23:54:39.770Z,1.86
2023-03-22T23:58:39.919Z,1.90
